sensor_id;sensor_type;location;lat;lon;timestamp;P1;durP1;ratioP1;P2;durP2;ratioP2
42110;SDS011;27766;52.174;5.456;2023-03-14T00:01:14;17.67;;;5.40;;
42110;SDS011;27766;52.174;5.456;2023-03-14T00:03:43;21.60;;;6.65;;
42110;SDS011;27766;52.174;5.456;2023-03-14T00:06:11;15.75;;;5.35;;
42110;SDS011;27766;52.174;5.456;2023-03-14T00:08:39;24.05;;;5.97;;
42110;SDS011;27766;52.174;5.456;2023-03-14T00:11:08;21.42;;;6.25;;
42110;SDS011;27766;52.174;5.456;2023-03-14T00:13:46;17.80;;;6.30;;
42110;SDS011;27766;52.174;5.456;2023-03-14T00:16:14;13.15;;;5.57;;
42110;SDS011;27766;52.174;5.456;2023-03-14T00:18:42;18.35;;;5.60;;
42110;SDS011;27766;52.174;5.456;2023-03-14T00:21:10;21.88;;;6.15;;
42110;SDS011;27766;52.174;5.456;2023-03-14T00:23:38;15.13;;;4.80;;
42110;SDS011;27766;52.174;5.456;2023-03-14T00:26:08;29.70;;;6.40;;
42110;SDS011;27766;52.174;5.456;2023-03-14T00:28:37;23.02;;;6.18;;
42110;SDS011;27766;52.174;5.456;2023-03-14T00:31:05;13.63;;;5.07;;
42110;SDS011;27766;52.174;5.456;2023-03-14T00:33:34;18.35;;;6.00;;
42110;SDS011;27766;52.174;5.456;2023-03-14T00:36:03;15.88;;;5.70;;
42110;SDS011;27766;52.174;5.456;2023-03-14T00:38:32;20.20;;;5.35;;
42110;SDS011;27766;52.174;5.456;2023-03-14T00:41:02;18.90;;;4.88;;
42110;SDS011;27766;52.174;5.456;2023-03-14T00:43:34;14.65;;;4.78;;
42110;SDS011;27766;52.174;5.456;2023-03-14T00:46:01;12.50;;;5.28;;
42110;SDS011;27766;52.174;5.456;2023-03-14T00:48:29;17.30;;;4.22;;
42110;SDS011;27766;52.174;5.456;2023-03-14T00:50:57;14.30;;;3.42;;
42110;SDS011;27766;52.174;5.456;2023-03-14T00:53:25;11.00;;;3.10;;
42110;SDS011;27766;52.174;5.456;2023-03-14T00:55:52;6.07;;;2.40;;
42110;SDS011;27766;52.174;5.456;2023-03-14T00:58:19;15.32;;;2.60;;
42110;SDS011;27766;52.174;5.456;2023-03-14T01:00:46;9.85;;;2.20;;
42110;SDS011;27766;52.174;5.456;2023-03-14T01:03:14;16.50;;;2.25;;
42110;SDS011;27766;52.174;5.456;2023-03-14T01:05:41;17.08;;;2.75;;
42110;SDS011;27766;52.174;5.456;2023-03-14T01:08:08;11.25;;;3.08;;
42110;SDS011;27766;52.174;5.456;2023-03-14T01:10:39;7.38;;;2.45;;
42110;SDS011;27766;52.174;5.456;2023-03-14T01:13:07;7.95;;;2.10;;
42110;SDS011;27766;52.174;5.456;2023-03-14T01:15:35;7.82;;;2.83;;
42110;SDS011;27766;52.174;5.456;2023-03-14T01:18:03;9.45;;;2.05;;
42110;SDS011;27766;52.174;5.456;2023-03-14T01:20:31;11.95;;;2.05;;
42110;SDS011;27766;52.174;5.456;2023-03-14T01:22:58;7.20;;;2.30;;
42110;SDS011;27766;52.174;5.456;2023-03-14T01:25:25;8.85;;;2.05;;
42110;SDS011;27766;52.174;5.456;2023-03-14T01:27:52;11.82;;;2.70;;
42110;SDS011;27766;52.174;5.456;2023-03-14T01:30:19;3.70;;;1.77;;
42110;SDS011;27766;52.174;5.456;2023-03-14T01:32:46;12.95;;;2.60;;
42110;SDS011;27766;52.174;5.456;2023-03-14T01:35:14;7.40;;;1.77;;
42110;SDS011;27766;52.174;5.456;2023-03-14T01:37:41;6.70;;;1.63;;
42110;SDS011;27766;52.174;5.456;2023-03-14T01:40:09;6.95;;;2.40;;
42110;SDS011;27766;52.174;5.456;2023-03-14T01:42:37;9.82;;;2.38;;
42110;SDS011;27766;52.174;5.456;2023-03-14T01:45:53;6.53;;;2.47;;
42110;SDS011;27766;52.174;5.456;2023-03-14T01:48:11;10.45;;;2.45;;
42110;SDS011;27766;52.174;5.456;2023-03-14T01:50:38;4.30;;;1.65;;
42110;SDS011;27766;52.174;5.456;2023-03-14T01:53:06;6.72;;;1.98;;
42110;SDS011;27766;52.174;5.456;2023-03-14T01:55:33;8.75;;;2.38;;
42110;SDS011;27766;52.174;5.456;2023-03-14T01:58:00;5.70;;;1.77;;
42110;SDS011;27766;52.174;5.456;2023-03-14T02:00:30;7.85;;;2.13;;
42110;SDS011;27766;52.174;5.456;2023-03-14T02:02:58;12.10;;;2.38;;
42110;SDS011;27766;52.174;5.456;2023-03-14T02:05:32;5.93;;;1.88;;
42110;SDS011;27766;52.174;5.456;2023-03-14T02:08:02;11.80;;;2.60;;
42110;SDS011;27766;52.174;5.456;2023-03-14T02:10:33;8.30;;;2.60;;
42110;SDS011;27766;52.174;5.456;2023-03-14T02:13:05;12.18;;;1.60;;
42110;SDS011;27766;52.174;5.456;2023-03-14T02:15:33;8.60;;;2.22;;
42110;SDS011;27766;52.174;5.456;2023-03-14T02:18:00;5.65;;;1.77;;
42110;SDS011;27766;52.174;5.456;2023-03-14T02:23:05;13.70;;;2.17;;
42110;SDS011;27766;52.174;5.456;2023-03-14T02:28:42;7.32;;;1.67;;
42110;SDS011;27766;52.174;5.456;2023-03-14T02:31:09;9.15;;;1.80;;
42110;SDS011;27766;52.174;5.456;2023-03-14T02:33:37;7.43;;;1.70;;
42110;SDS011;27766;52.174;5.456;2023-03-14T02:36:06;8.15;;;1.92;;
42110;SDS011;27766;52.174;5.456;2023-03-14T02:41:20;7.53;;;1.70;;
42110;SDS011;27766;52.174;5.456;2023-03-14T02:43:47;11.02;;;1.77;;
42110;SDS011;27766;52.174;5.456;2023-03-14T02:46:18;7.18;;;1.65;;
42110;SDS011;27766;52.174;5.456;2023-03-14T02:51:20;3.63;;;1.20;;
42110;SDS011;27766;52.174;5.456;2023-03-14T02:53:48;8.57;;;2.17;;
42110;SDS011;27766;52.174;5.456;2023-03-14T02:56:15;5.40;;;2.20;;
42110;SDS011;27766;52.174;5.456;2023-03-14T02:58:42;10.57;;;2.00;;
42110;SDS011;27766;52.174;5.456;2023-03-14T03:01:09;3.47;;;1.85;;
42110;SDS011;27766;52.174;5.456;2023-03-14T03:03:36;4.93;;;1.85;;
42110;SDS011;27766;52.174;5.456;2023-03-14T03:06:03;5.68;;;2.58;;
42110;SDS011;27766;52.174;5.456;2023-03-14T03:08:31;7.15;;;2.03;;
42110;SDS011;27766;52.174;5.456;2023-03-14T03:10:58;7.03;;;2.28;;
42110;SDS011;27766;52.174;5.456;2023-03-14T03:13:26;12.98;;;2.60;;
42110;SDS011;27766;52.174;5.456;2023-03-14T03:15:53;7.20;;;1.92;;
42110;SDS011;27766;52.174;5.456;2023-03-14T03:18:20;4.60;;;1.80;;
42110;SDS011;27766;52.174;5.456;2023-03-14T03:20:48;7.95;;;2.70;;
42110;SDS011;27766;52.174;5.456;2023-03-14T03:23:15;10.48;;;2.53;;
42110;SDS011;27766;52.174;5.456;2023-03-14T03:25:42;6.40;;;2.50;;
42110;SDS011;27766;52.174;5.456;2023-03-14T03:28:14;11.32;;;2.67;;
42110;SDS011;27766;52.174;5.456;2023-03-14T03:30:41;8.73;;;2.60;;
42110;SDS011;27766;52.174;5.456;2023-03-14T03:33:09;4.75;;;2.20;;
42110;SDS011;27766;52.174;5.456;2023-03-14T03:35:44;19.48;;;2.70;;
42110;SDS011;27766;52.174;5.456;2023-03-14T03:38:12;10.60;;;2.85;;
42110;SDS011;27766;52.174;5.456;2023-03-14T03:40:40;8.88;;;2.55;;
42110;SDS011;27766;52.174;5.456;2023-03-14T03:43:07;6.55;;;2.22;;
42110;SDS011;27766;52.174;5.456;2023-03-14T03:45:35;9.95;;;3.33;;
42110;SDS011;27766;52.174;5.456;2023-03-14T03:48:02;7.43;;;2.95;;
42110;SDS011;27766;52.174;5.456;2023-03-14T03:50:30;14.52;;;2.35;;
42110;SDS011;27766;52.174;5.456;2023-03-14T03:52:57;7.50;;;2.40;;
42110;SDS011;27766;52.174;5.456;2023-03-14T03:55:24;12.63;;;2.80;;
42110;SDS011;27766;52.174;5.456;2023-03-14T03:57:52;11.98;;;2.22;;
42110;SDS011;27766;52.174;5.456;2023-03-14T04:00:19;12.13;;;2.08;;
42110;SDS011;27766;52.174;5.456;2023-03-14T04:02:46;12.52;;;2.25;;
42110;SDS011;27766;52.174;5.456;2023-03-14T04:05:13;10.60;;;2.70;;
42110;SDS011;27766;52.174;5.456;2023-03-14T04:07:41;10.80;;;2.45;;
42110;SDS011;27766;52.174;5.456;2023-03-14T04:10:08;6.10;;;2.55;;
42110;SDS011;27766;52.174;5.456;2023-03-14T04:12:35;7.85;;;1.88;;
42110;SDS011;27766;52.174;5.456;2023-03-14T04:15:03;9.00;;;2.35;;
42110;SDS011;27766;52.174;5.456;2023-03-14T04:17:30;16.98;;;2.45;;
42110;SDS011;27766;52.174;5.456;2023-03-14T04:19:57;10.35;;;2.53;;
42110;SDS011;27766;52.174;5.456;2023-03-14T04:22:25;18.30;;;2.35;;
42110;SDS011;27766;52.174;5.456;2023-03-14T04:24:52;18.17;;;2.95;;
42110;SDS011;27766;52.174;5.456;2023-03-14T04:27:19;11.38;;;2.78;;
42110;SDS011;27766;52.174;5.456;2023-03-14T04:29:46;6.65;;;1.70;;
42110;SDS011;27766;52.174;5.456;2023-03-14T04:32:13;6.80;;;1.88;;
42110;SDS011;27766;52.174;5.456;2023-03-14T04:34:41;5.47;;;1.98;;
42110;SDS011;27766;52.174;5.456;2023-03-14T04:37:08;3.90;;;2.08;;
42110;SDS011;27766;52.174;5.456;2023-03-14T04:39:35;8.68;;;2.47;;
42110;SDS011;27766;52.174;5.456;2023-03-14T04:42:02;10.15;;;2.13;;
42110;SDS011;27766;52.174;5.456;2023-03-14T04:44:29;6.63;;;1.98;;
42110;SDS011;27766;52.174;5.456;2023-03-14T04:46:56;9.10;;;2.65;;
42110;SDS011;27766;52.174;5.456;2023-03-14T04:49:23;8.02;;;2.63;;
42110;SDS011;27766;52.174;5.456;2023-03-14T04:51:51;8.40;;;2.25;;
42110;SDS011;27766;52.174;5.456;2023-03-14T04:54:18;10.60;;;2.33;;
42110;SDS011;27766;52.174;5.456;2023-03-14T04:56:45;6.53;;;1.83;;
42110;SDS011;27766;52.174;5.456;2023-03-14T04:59:12;12.90;;;2.20;;
42110;SDS011;27766;52.174;5.456;2023-03-14T05:01:39;8.75;;;2.00;;
42110;SDS011;27766;52.174;5.456;2023-03-14T05:04:08;11.85;;;3.20;;
42110;SDS011;27766;52.174;5.456;2023-03-14T05:06:35;13.65;;;2.55;;
42110;SDS011;27766;52.174;5.456;2023-03-14T05:09:02;4.22;;;1.83;;
42110;SDS011;27766;52.174;5.456;2023-03-14T05:11:31;9.85;;;2.03;;
42110;SDS011;27766;52.174;5.456;2023-03-14T05:13:59;10.98;;;2.50;;
42110;SDS011;27766;52.174;5.456;2023-03-14T05:16:27;10.38;;;2.75;;
42110;SDS011;27766;52.174;5.456;2023-03-14T05:18:54;4.68;;;2.15;;
42110;SDS011;27766;52.174;5.456;2023-03-14T05:21:21;8.25;;;2.67;;
42110;SDS011;27766;52.174;5.456;2023-03-14T05:23:48;10.55;;;3.05;;
42110;SDS011;27766;52.174;5.456;2023-03-14T05:26:15;8.30;;;3.03;;
42110;SDS011;27766;52.174;5.456;2023-03-14T05:28:43;4.25;;;2.35;;
42110;SDS011;27766;52.174;5.456;2023-03-14T05:31:11;7.47;;;2.42;;
42110;SDS011;27766;52.174;5.456;2023-03-14T05:33:38;11.00;;;2.83;;
42110;SDS011;27766;52.174;5.456;2023-03-14T05:36:05;8.75;;;3.05;;
42110;SDS011;27766;52.174;5.456;2023-03-14T05:38:33;5.82;;;2.67;;
42110;SDS011;27766;52.174;5.456;2023-03-14T05:41:00;10.60;;;2.80;;
42110;SDS011;27766;52.174;5.456;2023-03-14T05:43:27;9.60;;;3.05;;
42110;SDS011;27766;52.174;5.456;2023-03-14T05:45:55;8.27;;;2.47;;
42110;SDS011;27766;52.174;5.456;2023-03-14T05:48:22;9.02;;;3.03;;
42110;SDS011;27766;52.174;5.456;2023-03-14T05:50:54;7.15;;;2.55;;
42110;SDS011;27766;52.174;5.456;2023-03-14T05:53:22;8.75;;;3.72;;
42110;SDS011;27766;52.174;5.456;2023-03-14T05:55:52;14.55;;;3.78;;
42110;SDS011;27766;52.174;5.456;2023-03-14T05:58:23;5.88;;;3.03;;
42110;SDS011;27766;52.174;5.456;2023-03-14T06:00:51;13.88;;;4.10;;
42110;SDS011;27766;52.174;5.456;2023-03-14T06:03:18;12.88;;;4.32;;
42110;SDS011;27766;52.174;5.456;2023-03-14T06:05:45;7.55;;;3.63;;
42110;SDS011;27766;52.174;5.456;2023-03-14T06:08:12;7.03;;;3.72;;
42110;SDS011;27766;52.174;5.456;2023-03-14T06:10:41;6.68;;;3.58;;
42110;SDS011;27766;52.174;5.456;2023-03-14T06:13:09;7.68;;;3.72;;
42110;SDS011;27766;52.174;5.456;2023-03-14T06:15:36;9.93;;;4.45;;
42110;SDS011;27766;52.174;5.456;2023-03-14T06:18:03;5.43;;;3.92;;
42110;SDS011;27766;52.174;5.456;2023-03-14T06:20:31;7.18;;;4.65;;
42110;SDS011;27766;52.174;5.456;2023-03-14T06:22:59;8.82;;;5.18;;
42110;SDS011;27766;52.174;5.456;2023-03-14T06:25:27;12.85;;;5.35;;
42110;SDS011;27766;52.174;5.456;2023-03-14T06:27:55;8.77;;;5.40;;
42110;SDS011;27766;52.174;5.456;2023-03-14T06:30:22;7.90;;;5.05;;
42110;SDS011;27766;52.174;5.456;2023-03-14T06:32:49;13.48;;;7.68;;
42110;SDS011;27766;52.174;5.456;2023-03-14T06:35:16;14.93;;;6.05;;
42110;SDS011;27766;52.174;5.456;2023-03-14T06:37:43;11.32;;;6.25;;
42110;SDS011;27766;52.174;5.456;2023-03-14T06:40:11;12.82;;;6.20;;
42110;SDS011;27766;52.174;5.456;2023-03-14T06:42:44;8.73;;;5.65;;
42110;SDS011;27766;52.174;5.456;2023-03-14T06:45:12;10.13;;;5.07;;
42110;SDS011;27766;52.174;5.456;2023-03-14T06:47:39;18.08;;;5.90;;
42110;SDS011;27766;52.174;5.456;2023-03-14T06:50:07;5.10;;;3.50;;
42110;SDS011;27766;52.174;5.456;2023-03-14T06:52:35;3.90;;;1.67;;
42110;SDS011;27766;52.174;5.456;2023-03-14T06:55:03;4.78;;;1.23;;
42110;SDS011;27766;52.174;5.456;2023-03-14T06:57:30;3.03;;;0.90;;
42110;SDS011;27766;52.174;5.456;2023-03-14T06:59:57;2.28;;;0.98;;
42110;SDS011;27766;52.174;5.456;2023-03-14T07:02:25;1.70;;;0.68;;
42110;SDS011;27766;52.174;5.456;2023-03-14T07:05:07;2.75;;;1.13;;
42110;SDS011;27766;52.174;5.456;2023-03-14T07:07:37;2.05;;;1.00;;
42110;SDS011;27766;52.174;5.456;2023-03-14T07:10:04;4.65;;;1.05;;
42110;SDS011;27766;52.174;5.456;2023-03-14T07:12:31;2.90;;;1.02;;
42110;SDS011;27766;52.174;5.456;2023-03-14T07:14:59;4.75;;;1.15;;
42110;SDS011;27766;52.174;5.456;2023-03-14T07:17:46;4.47;;;1.23;;
42110;SDS011;27766;52.174;5.456;2023-03-14T07:20:15;2.03;;;0.85;;
42110;SDS011;27766;52.174;5.456;2023-03-14T07:22:42;5.72;;;1.00;;
42110;SDS011;27766;52.174;5.456;2023-03-14T07:25:09;4.93;;;1.25;;
42110;SDS011;27766;52.174;5.456;2023-03-14T07:27:38;1.90;;;1.38;;
42110;SDS011;27766;52.174;5.456;2023-03-14T07:30:05;3.45;;;1.30;;
42110;SDS011;27766;52.174;5.456;2023-03-14T07:32:33;6.03;;;1.75;;
42110;SDS011;27766;52.174;5.456;2023-03-14T07:35:00;6.18;;;1.38;;
42110;SDS011;27766;52.174;5.456;2023-03-14T07:37:27;3.25;;;1.52;;
42110;SDS011;27766;52.174;5.456;2023-03-14T07:39:55;3.95;;;1.10;;
42110;SDS011;27766;52.174;5.456;2023-03-14T07:42:22;3.47;;;1.42;;
42110;SDS011;27766;52.174;5.456;2023-03-14T07:44:49;2.65;;;1.45;;
42110;SDS011;27766;52.174;5.456;2023-03-14T07:47:16;2.58;;;1.00;;
42110;SDS011;27766;52.174;5.456;2023-03-14T07:49:43;5.50;;;1.33;;
42110;SDS011;27766;52.174;5.456;2023-03-14T07:52:10;4.20;;;0.77;;
42110;SDS011;27766;52.174;5.456;2023-03-14T07:54:37;11.35;;;1.60;;
42110;SDS011;27766;52.174;5.456;2023-03-14T07:57:04;6.60;;;0.95;;
42110;SDS011;27766;52.174;5.456;2023-03-14T07:59:31;4.30;;;0.98;;
42110;SDS011;27766;52.174;5.456;2023-03-14T08:01:59;13.75;;;1.25;;
42110;SDS011;27766;52.174;5.456;2023-03-14T08:04:26;6.50;;;1.20;;
42110;SDS011;27766;52.174;5.456;2023-03-14T08:06:55;5.32;;;1.52;;
42110;SDS011;27766;52.174;5.456;2023-03-14T08:09:22;5.32;;;1.02;;
42110;SDS011;27766;52.174;5.456;2023-03-14T08:11:49;7.65;;;1.50;;
42110;SDS011;27766;52.174;5.456;2023-03-14T08:14:16;9.00;;;0.82;;
42110;SDS011;27766;52.174;5.456;2023-03-14T08:16:43;7.63;;;1.60;;
42110;SDS011;27766;52.174;5.456;2023-03-14T08:19:10;9.02;;;1.48;;
42110;SDS011;27766;52.174;5.456;2023-03-14T08:21:38;8.55;;;0.98;;
42110;SDS011;27766;52.174;5.456;2023-03-14T08:24:05;8.10;;;1.05;;
42110;SDS011;27766;52.174;5.456;2023-03-14T08:26:32;0.60;;;0.50;;
42110;SDS011;27766;52.174;5.456;2023-03-14T08:29:00;8.13;;;1.08;;
42110;SDS011;27766;52.174;5.456;2023-03-14T08:31:27;6.95;;;1.38;;
42110;SDS011;27766;52.174;5.456;2023-03-14T08:33:55;2.47;;;0.60;;
42110;SDS011;27766;52.174;5.456;2023-03-14T08:36:25;2.70;;;0.60;;
42110;SDS011;27766;52.174;5.456;2023-03-14T08:38:52;2.10;;;0.50;;
42110;SDS011;27766;52.174;5.456;2023-03-14T08:41:19;9.70;;;0.85;;
42110;SDS011;27766;52.174;5.456;2023-03-14T08:43:46;6.72;;;1.55;;
42110;SDS011;27766;52.174;5.456;2023-03-14T08:46:13;4.30;;;1.42;;
42110;SDS011;27766;52.174;5.456;2023-03-14T08:48:40;3.92;;;1.35;;
42110;SDS011;27766;52.174;5.456;2023-03-14T08:51:11;2.42;;;0.98;;
42110;SDS011;27766;52.174;5.456;2023-03-14T08:53:41;2.27;;;0.93;;
42110;SDS011;27766;52.174;5.456;2023-03-14T08:56:08;5.53;;;0.65;;
42110;SDS011;27766;52.174;5.456;2023-03-14T08:58:37;7.15;;;0.95;;
42110;SDS011;27766;52.174;5.456;2023-03-14T09:01:05;5.10;;;1.20;;
42110;SDS011;27766;52.174;5.456;2023-03-14T09:03:32;4.53;;;1.25;;
42110;SDS011;27766;52.174;5.456;2023-03-14T09:06:03;14.10;;;1.20;;
42110;SDS011;27766;52.174;5.456;2023-03-14T09:08:34;5.50;;;1.00;;
42110;SDS011;27766;52.174;5.456;2023-03-14T09:11:08;9.15;;;1.25;;
42110;SDS011;27766;52.174;5.456;2023-03-14T09:13:35;10.52;;;1.60;;
42110;SDS011;27766;52.174;5.456;2023-03-14T09:16:02;5.10;;;1.38;;
42110;SDS011;27766;52.174;5.456;2023-03-14T09:18:30;4.07;;;1.20;;
42110;SDS011;27766;52.174;5.456;2023-03-14T09:20:57;5.55;;;1.65;;
42110;SDS011;27766;52.174;5.456;2023-03-14T09:23:25;9.35;;;1.13;;
42110;SDS011;27766;52.174;5.456;2023-03-14T09:25:55;10.20;;;1.65;;
42110;SDS011;27766;52.174;5.456;2023-03-14T09:28:29;8.85;;;2.13;;
42110;SDS011;27766;52.174;5.456;2023-03-14T09:30:57;10.73;;;2.17;;
42110;SDS011;27766;52.174;5.456;2023-03-14T09:33:25;6.32;;;1.88;;
42110;SDS011;27766;52.174;5.456;2023-03-14T09:35:52;9.57;;;1.42;;
42110;SDS011;27766;52.174;5.456;2023-03-14T09:38:19;6.15;;;1.63;;
42110;SDS011;27766;52.174;5.456;2023-03-14T09:40:47;9.40;;;1.65;;
42110;SDS011;27766;52.174;5.456;2023-03-14T09:43:15;7.53;;;1.85;;
42110;SDS011;27766;52.174;5.456;2023-03-14T09:45:43;13.80;;;1.67;;
42110;SDS011;27766;52.174;5.456;2023-03-14T09:48:22;10.95;;;2.55;;
42110;SDS011;27766;52.174;5.456;2023-03-14T09:50:55;7.03;;;2.20;;
42110;SDS011;27766;52.174;5.456;2023-03-14T09:53:26;16.58;;;2.28;;
42110;SDS011;27766;52.174;5.456;2023-03-14T09:55:56;9.27;;;2.42;;
42110;SDS011;27766;52.174;5.456;2023-03-14T09:58:25;11.35;;;2.72;;
42110;SDS011;27766;52.174;5.456;2023-03-14T10:00:53;16.17;;;2.90;;
42110;SDS011;27766;52.174;5.456;2023-03-14T10:03:31;17.77;;;2.72;;
42110;SDS011;27766;52.174;5.456;2023-03-14T10:05:59;21.00;;;2.97;;
42110;SDS011;27766;52.174;5.456;2023-03-14T10:08:27;6.47;;;1.80;;
42110;SDS011;27766;52.174;5.456;2023-03-14T10:10:55;14.23;;;2.33;;
42110;SDS011;27766;52.174;5.456;2023-03-14T10:13:23;11.40;;;2.40;;
42110;SDS011;27766;52.174;5.456;2023-03-14T10:16:04;17.77;;;2.70;;
42110;SDS011;27766;52.174;5.456;2023-03-14T10:18:34;11.70;;;2.17;;
42110;SDS011;27766;52.174;5.456;2023-03-14T10:21:20;20.20;;;2.95;;
42110;SDS011;27766;52.174;5.456;2023-03-14T10:23:52;7.93;;;1.90;;
42110;SDS011;27766;52.174;5.456;2023-03-14T10:26:29;16.42;;;3.17;;
42110;SDS011;27766;52.174;5.456;2023-03-14T10:29:17;14.80;;;1.80;;
42110;SDS011;27766;52.174;5.456;2023-03-14T10:34:25;13.20;;;2.60;;
42110;SDS011;27766;52.174;5.456;2023-03-14T10:36:56;10.07;;;3.13;;
42110;SDS011;27766;52.174;5.456;2023-03-14T10:39:27;16.10;;;2.75;;
42110;SDS011;27766;52.174;5.456;2023-03-14T10:42:03;32.23;;;4.43;;
42110;SDS011;27766;52.174;5.456;2023-03-14T10:44:50;17.73;;;2.67;;
42110;SDS011;27766;52.174;5.456;2023-03-14T10:47:23;19.08;;;2.97;;
42110;SDS011;27766;52.174;5.456;2023-03-14T10:49:52;15.57;;;4.03;;
42110;SDS011;27766;52.174;5.456;2023-03-14T10:52:24;21.08;;;4.22;;
42110;SDS011;27766;52.174;5.456;2023-03-14T10:55:03;13.10;;;3.45;;
42110;SDS011;27766;52.174;5.456;2023-03-14T10:57:42;16.20;;;3.45;;
42110;SDS011;27766;52.174;5.456;2023-03-14T11:00:20;15.50;;;3.40;;
42110;SDS011;27766;52.174;5.456;2023-03-14T11:05:24;15.98;;;3.08;;
42110;SDS011;27766;52.174;5.456;2023-03-14T11:08:02;16.10;;;3.35;;
42110;SDS011;27766;52.174;5.456;2023-03-14T11:10:36;15.15;;;3.78;;
42110;SDS011;27766;52.174;5.456;2023-03-14T11:13:15;22.30;;;3.90;;
42110;SDS011;27766;52.174;5.456;2023-03-14T11:26:59;14.38;;;2.42;;
42110;SDS011;27766;52.174;5.456;2023-03-14T11:29:53;8.05;;;2.20;;
42110;SDS011;27766;52.174;5.456;2023-03-14T11:32:48;10.05;;;2.75;;
42110;SDS011;27766;52.174;5.456;2023-03-14T11:35:33;20.48;;;3.30;;
42110;SDS011;27766;52.174;5.456;2023-03-14T11:38:14;6.57;;;2.07;;
42110;SDS011;27766;52.174;5.456;2023-03-14T11:40:42;11.82;;;1.83;;
42110;SDS011;27766;52.174;5.456;2023-03-14T11:43:13;16.20;;;2.00;;
42110;SDS011;27766;52.174;5.456;2023-03-14T11:45:44;7.28;;;2.50;;
42110;SDS011;27766;52.174;5.456;2023-03-14T11:51:14;9.85;;;1.75;;
42110;SDS011;27766;52.174;5.456;2023-03-14T11:56:29;15.50;;;1.45;;
42110;SDS011;27766;52.174;5.456;2023-03-14T11:59:02;8.05;;;2.33;;
42110;SDS011;27766;52.174;5.456;2023-03-14T12:01:52;8.27;;;1.95;;
42110;SDS011;27766;52.174;5.456;2023-03-14T12:10:45;15.32;;;1.98;;
42110;SDS011;27766;52.174;5.456;2023-03-14T12:13:17;6.80;;;1.42;;
42110;SDS011;27766;52.174;5.456;2023-03-14T12:15:55;7.63;;;2.47;;
42110;SDS011;27766;52.174;5.456;2023-03-14T12:18:28;5.40;;;1.77;;
42110;SDS011;27766;52.174;5.456;2023-03-14T12:21:03;8.40;;;1.23;;
42110;SDS011;27766;52.174;5.456;2023-03-14T12:23:35;7.32;;;1.70;;
42110;SDS011;27766;52.174;5.456;2023-03-14T12:26:13;5.18;;;1.25;;
42110;SDS011;27766;52.174;5.456;2023-03-14T12:29:29;10.63;;;2.00;;
42110;SDS011;27766;52.174;5.456;2023-03-14T12:44:53;3.95;;;1.20;;
42110;SDS011;27766;52.174;5.456;2023-03-14T12:50:13;5.00;;;1.20;;
42110;SDS011;27766;52.174;5.456;2023-03-14T12:53:15;4.95;;;1.02;;
42110;SDS011;27766;52.174;5.456;2023-03-14T12:56:06;2.05;;;0.93;;
42110;SDS011;27766;52.174;5.456;2023-03-14T12:59:12;9.68;;;1.23;;
42110;SDS011;27766;52.174;5.456;2023-03-14T13:01:48;3.75;;;0.98;;
42110;SDS011;27766;52.174;5.456;2023-03-14T13:05:01;4.88;;;1.23;;
42110;SDS011;27766;52.174;5.456;2023-03-14T13:12:51;5.97;;;1.15;;
42110;SDS011;27766;52.174;5.456;2023-03-14T13:15:45;4.15;;;1.33;;
42110;SDS011;27766;52.174;5.456;2023-03-14T13:18:16;4.25;;;1.40;;
42110;SDS011;27766;52.174;5.456;2023-03-14T13:20:53;2.42;;;0.88;;
42110;SDS011;27766;52.174;5.456;2023-03-14T13:23:24;4.10;;;1.33;;
42110;SDS011;27766;52.174;5.456;2023-03-14T13:28:26;3.03;;;0.80;;
42110;SDS011;27766;52.174;5.456;2023-03-14T13:31:00;6.63;;;1.05;;
42110;SDS011;27766;52.174;5.456;2023-03-14T13:33:32;6.22;;;1.40;;
42110;SDS011;27766;52.174;5.456;2023-03-14T13:36:02;4.18;;;1.70;;
42110;SDS011;27766;52.174;5.456;2023-03-14T13:38:33;5.18;;;0.98;;
42110;SDS011;27766;52.174;5.456;2023-03-14T13:41:06;1.90;;;0.93;;
42110;SDS011;27766;52.174;5.456;2023-03-14T13:43:40;7.95;;;1.13;;
42110;SDS011;27766;52.174;5.456;2023-03-14T13:46:14;4.72;;;1.50;;
42110;SDS011;27766;52.174;5.456;2023-03-14T13:48:56;5.32;;;1.23;;
42110;SDS011;27766;52.174;5.456;2023-03-14T13:51:26;7.78;;;1.40;;
42110;SDS011;27766;52.174;5.456;2023-03-14T13:53:59;6.68;;;1.35;;
42110;SDS011;27766;52.174;5.456;2023-03-14T13:56:27;9.35;;;1.38;;
42110;SDS011;27766;52.174;5.456;2023-03-14T13:58:56;2.63;;;0.77;;
42110;SDS011;27766;52.174;5.456;2023-03-14T14:01:30;5.85;;;1.20;;
42110;SDS011;27766;52.174;5.456;2023-03-14T14:04:06;2.78;;;1.13;;
42110;SDS011;27766;52.174;5.456;2023-03-14T14:06:36;7.38;;;1.23;;
42110;SDS011;27766;52.174;5.456;2023-03-14T14:09:19;2.47;;;1.10;;
42110;SDS011;27766;52.174;5.456;2023-03-14T14:17:11;4.50;;;1.20;;
42110;SDS011;27766;52.174;5.456;2023-03-14T14:19:43;3.72;;;0.93;;
42110;SDS011;27766;52.174;5.456;2023-03-14T14:22:12;2.75;;;1.05;;
42110;SDS011;27766;52.174;5.456;2023-03-14T14:24:40;5.53;;;1.13;;
42110;SDS011;27766;52.174;5.456;2023-03-14T14:27:18;8.68;;;1.52;;
42110;SDS011;27766;52.174;5.456;2023-03-14T14:30:00;10.45;;;1.52;;
42110;SDS011;27766;52.174;5.456;2023-03-14T14:32:35;3.80;;;1.20;;
42110;SDS011;27766;52.174;5.456;2023-03-14T14:35:04;8.87;;;1.43;;
42110;SDS011;27766;52.174;5.456;2023-03-14T14:37:34;5.93;;;1.20;;
42110;SDS011;27766;52.174;5.456;2023-03-14T14:40:08;9.60;;;1.20;;
42110;SDS011;27766;52.174;5.456;2023-03-14T14:42:42;5.20;;;1.45;;
42110;SDS011;27766;52.174;5.456;2023-03-14T14:45:14;8.70;;;1.67;;
42110;SDS011;27766;52.174;5.456;2023-03-14T14:47:49;6.90;;;1.58;;
42110;SDS011;27766;52.174;5.456;2023-03-14T14:50:31;5.18;;;1.17;;
42110;SDS011;27766;52.174;5.456;2023-03-14T14:53:23;1.63;;;0.73;;
42110;SDS011;27766;52.174;5.456;2023-03-14T14:55:58;9.27;;;1.20;;
42110;SDS011;27766;52.174;5.456;2023-03-14T14:58:39;5.78;;;1.13;;
42110;SDS011;27766;52.174;5.456;2023-03-14T15:01:12;7.32;;;1.08;;
42110;SDS011;27766;52.174;5.456;2023-03-14T15:03:51;2.75;;;1.20;;
42110;SDS011;27766;52.174;5.456;2023-03-14T15:06:20;6.85;;;1.40;;
42110;SDS011;27766;52.174;5.456;2023-03-14T15:08:48;8.70;;;1.38;;
42110;SDS011;27766;52.174;5.456;2023-03-14T15:11:16;3.00;;;1.00;;
42110;SDS011;27766;52.174;5.456;2023-03-14T15:13:45;6.82;;;1.67;;
42110;SDS011;27766;52.174;5.456;2023-03-14T15:16:12;5.03;;;1.55;;
42110;SDS011;27766;52.174;5.456;2023-03-14T15:18:44;3.97;;;0.70;;
42110;SDS011;27766;52.174;5.456;2023-03-14T15:21:17;1.85;;;0.82;;
42110;SDS011;27766;52.174;5.456;2023-03-14T15:23:44;9.15;;;1.50;;
42110;SDS011;27766;52.174;5.456;2023-03-14T15:26:15;4.03;;;1.20;;
42110;SDS011;27766;52.174;5.456;2023-03-14T15:31:13;7.22;;;1.25;;
42110;SDS011;27766;52.174;5.456;2023-03-14T15:33:42;10.13;;;1.55;;
42110;SDS011;27766;52.174;5.456;2023-03-14T15:36:15;2.38;;;0.85;;
42110;SDS011;27766;52.174;5.456;2023-03-14T15:38:47;10.13;;;1.20;;
42110;SDS011;27766;52.174;5.456;2023-03-14T15:41:14;7.45;;;1.30;;
42110;SDS011;27766;52.174;5.456;2023-03-14T15:43:42;6.95;;;1.13;;
42110;SDS011;27766;52.174;5.456;2023-03-14T15:46:10;2.40;;;0.85;;
42110;SDS011;27766;52.174;5.456;2023-03-14T15:48:38;3.28;;;0.90;;
42110;SDS011;27766;52.174;5.456;2023-03-14T15:51:05;5.70;;;1.58;;
42110;SDS011;27766;52.174;5.456;2023-03-14T15:53:33;2.22;;;0.90;;
42110;SDS011;27766;52.174;5.456;2023-03-14T15:56:04;4.70;;;1.35;;
42110;SDS011;27766;52.174;5.456;2023-03-14T15:58:32;2.25;;;0.82;;
42110;SDS011;27766;52.174;5.456;2023-03-14T16:01:01;1.50;;;0.60;;
42110;SDS011;27766;52.174;5.456;2023-03-14T16:03:29;2.67;;;1.23;;
42110;SDS011;27766;52.174;5.456;2023-03-14T16:05:56;5.75;;;1.40;;
42110;SDS011;27766;52.174;5.456;2023-03-14T16:08:23;5.03;;;1.33;;
42110;SDS011;27766;52.174;5.456;2023-03-14T16:10:52;4.20;;;0.80;;
42110;SDS011;27766;52.174;5.456;2023-03-14T16:13:20;6.75;;;1.25;;